Terminal Aerodrome Forecast
Issued by NWS

Home | Current Version | Previous Version | Text Only | Print | Product List | Glossary On
Versions: 1 2 3 4 5 6 7 8 9 10 11 12 13 14 15 16
591
FTUS41 KPBZ 201720
TAFAGC
TAF
KAGC 201720Z 2018/2118 00000KT P6SM BKN050
     FM202300 29003KT P6SM SCT070
     FM210900 00000KT 1SM BR FEW250
     FM211300 00000KT P6SM FEW250=

USA.gov is the U.S. government's official web portal to all federal, state and local government web resources and services.